Time;durP1;ratioP1;P1;durP2;ratioP2;P2;SDS_P1;SDS_P2;PMS_P1;PMS_P2;Temp;Humidity;BMP_temperature;BMP_pressure;BME280_temperature;BME280_humidity;BME280_pressure;Samples;Min_cycle;Max_cycle;Signal;HPM_P1;HPM_P2
2023/11/03 00:02:08;;;;;;;1.93;0.80;;;;;;;;;;5036847;28;20246;-66
2023/11/03 00:04:36;;;;;;;3.10;1.00;;;;;;;;;;5017301;28;20224;-66
2023/11/03 00:07:05;;;;;;;2.03;0.90;;;;;;;;;;5016829;28;20668;-66
2023/11/03 00:09:33;;;;;;;0.70;0.70;;;;;;;;;;5026291;28;20727;-66
2023/11/03 00:12:02;;;;;;;1.13;1.03;;;;;;;;;;5017638;28;20263;-65
2023/11/03 00:14:31;;;;;;;1.60;0.90;;;;;;;;;;5019156;28;20694;-65
2023/11/03 00:17:01;;;;;;;3.20;0.80;;;;;;;;;;5021572;28;20215;-65
2023/11/03 00:19:29;;;;;;;2.77;0.87;;;;;;;;;;5026696;28;20222;-65
2023/11/03 00:21:57;;;;;;;0.63;0.60;;;;;;;;;;5040895;28;20204;-65
2023/11/03 00:24:25;;;;;;;1.40;0.73;;;;;;;;;;5041096;28;20227;-66
2023/11/03 00:26:54;;;;;;;0.80;0.80;;;;;;;;;;5038652;28;20231;-65
2023/11/03 00:29:22;;;;;;;0.90;0.90;;;;;;;;;;5033058;28;20204;-63
2023/11/03 00:31:52;;;;;;;1.57;0.87;;;;;;;;;;5041020;28;20214;-66
2023/11/03 00:34:20;;;;;;;1.67;0.63;;;;;;;;;;5022975;28;20220;-67
2023/11/03 00:36:49;;;;;;;0.77;0.70;;;;;;;;;;5021113;28;20204;-65
2023/11/03 00:39:18;;;;;;;2.77;0.70;;;;;;;;;;5036776;28;20204;-63
2023/11/03 00:41:47;;;;;;;0.60;0.60;;;;;;;;;;5030273;28;20235;-65
2023/11/03 00:44:17;;;;;;;1.23;0.67;;;;;;;;;;5030854;28;20247;-63
2023/11/03 00:46:46;;;;;;;1.13;0.57;;;;;;;;;;5033936;28;20209;-64
2023/11/03 00:49:17;;;;;;;0.73;0.70;;;;;;;;;;5039705;28;20215;-64
2023/11/03 00:51:46;;;;;;;0.50;0.50;;;;;;;;;;5040498;28;20211;-63
2023/11/03 00:54:14;;;;;;;4.10;0.50;;;;;;;;;;5025632;28;20382;-64
2023/11/03 00:56:43;;;;;;;0.40;0.40;;;;;;;;;;5020653;28;20209;-63
2023/11/03 00:59:11;;;;;;;0.60;0.60;;;;;;;;;;5033086;28;20289;-62
2023/11/03 01:01:39;;;;;;;0.50;0.50;;;;;;;;;;5024735;28;20211;-64
2023/11/03 01:04:09;;;;;;;0.50;0.50;;;;;;;;;;5031400;28;20228;-63
2023/11/03 01:06:39;;;;;;;0.50;0.50;;;;;;;;;;5033465;28;20639;-63
2023/11/03 01:09:09;;;;;;;0.63;0.63;;;;;;;;;;5038994;28;20211;-65
2023/11/03 01:11:38;;;;;;;0.83;0.60;;;;;;;;;;5040384;28;20210;-62
2023/11/03 01:14:06;;;;;;;2.00;0.50;;;;;;;;;;5031208;28;20228;-64
2023/11/03 01:16:34;;;;;;;0.67;0.50;;;;;;;;;;5029775;28;20211;-62
2023/11/03 01:19:04;;;;;;;0.60;0.60;;;;;;;;;;5039243;28;20211;-63
2023/11/03 01:21:33;;;;;;;1.00;0.60;;;;;;;;;;5039129;28;20199;-63
2023/11/03 01:24:02;;;;;;;1.37;0.60;;;;;;;;;;5032621;28;20662;-64
2023/11/03 01:26:31;;;;;;;1.10;0.50;;;;;;;;;;5019966;28;20212;-63
2023/11/03 01:28:59;;;;;;;1.33;0.53;;;;;;;;;;5032141;28;20207;-63
2023/11/03 01:31:27;;;;;;;1.07;0.93;;;;;;;;;;5036784;28;20238;-62
2023/11/03 01:33:55;;;;;;;0.70;0.70;;;;;;;;;;5027581;28;20235;-62
2023/11/03 01:36:24;;;;;;;1.07;0.63;;;;;;;;;;5020017;28;20208;-63
2023/11/03 01:38:52;;;;;;;1.07;0.40;;;;;;;;;;5032670;28;20203;-63
2023/11/03 01:41:22;;;;;;;1.20;0.50;;;;;;;;;;5026693;28;20205;-63
2023/11/03 01:44:06;;;;;;;1.23;0.50;;;;;;;;;;5027612;28;20267;-64
2023/11/03 01:46:35;;;;;;;1.00;0.70;;;;;;;;;;5029499;28;20269;-63
2023/11/03 01:49:05;;;;;;;0.50;0.50;;;;;;;;;;5023077;28;20204;-63
2023/11/03 01:51:33;;;;;;;2.20;0.67;;;;;;;;;;5019468;28;20681;-64
2023/11/03 01:54:02;;;;;;;0.60;0.60;;;;;;;;;;5028272;28;20236;-63
2023/11/03 01:56:33;;;;;;;1.43;0.80;;;;;;;;;;5019388;28;20212;-64
2023/11/03 01:59:03;;;;;;;1.37;0.77;;;;;;;;;;5028794;28;20264;-63
2023/11/03 02:01:32;;;;;;;2.20;0.87;;;;;;;;;;5038443;28;20216;-65
2023/11/03 02:04:00;;;;;;;2.10;0.87;;;;;;;;;;5029848;28;20220;-66
2023/11/03 02:06:28;;;;;;;1.43;0.60;;;;;;;;;;5031997;28;20239;-66
2023/11/03 02:08:56;;;;;;;1.67;0.60;;;;;;;;;;5033385;28;20210;-66
2023/11/03 02:11:25;;;;;;;2.33;0.57;;;;;;;;;;5019396;28;20209;-63
2023/11/03 02:13:54;;;;;;;1.93;0.87;;;;;;;;;;5019827;28;20269;-65
2023/11/03 02:16:23;;;;;;;1.13;0.80;;;;;;;;;;5019154;28;20216;-62
2023/11/03 02:18:51;;;;;;;0.70;0.70;;;;;;;;;;5019238;28;20212;-63
2023/11/03 02:21:19;;;;;;;0.87;0.80;;;;;;;;;;5038674;28;20222;-64
2023/11/03 02:23:49;;;;;;;2.20;1.17;;;;;;;;;;5038598;28;20224;-63
2023/11/03 02:26:17;;;;;;;1.60;0.70;;;;;;;;;;5030949;28;20200;-64
2023/11/03 02:28:45;;;;;;;2.80;0.90;;;;;;;;;;5021930;28;20261;-64
2023/11/03 02:31:13;;;;;;;1.87;0.60;;;;;;;;;;5038629;28;20207;-63
2023/11/03 02:33:41;;;;;;;1.00;0.70;;;;;;;;;;5036749;28;20259;-64
2023/11/03 02:36:10;;;;;;;1.90;0.50;;;;;;;;;;5037614;28;20262;-63
2023/11/03 02:38:38;;;;;;;0.60;0.60;;;;;;;;;;5037754;28;20203;-63
2023/11/03 02:41:08;;;;;;;0.63;0.63;;;;;;;;;;5032533;28;20203;-64
2023/11/03 02:43:36;;;;;;;0.50;0.50;;;;;;;;;;5036706;28;20676;-63
2023/11/03 02:46:06;;;;;;;0.93;0.40;;;;;;;;;;5027477;28;20547;-63
2023/11/03 02:48:34;;;;;;;1.50;1.27;;;;;;;;;;5027796;28;20671;-63
2023/11/03 02:51:03;;;;;;;0.67;0.67;;;;;;;;;;5019584;28;20651;-64
2023/11/03 02:53:31;;;;;;;0.40;0.40;;;;;;;;;;5024341;28;20227;-64
2023/11/03 02:55:59;;;;;;;0.60;0.60;;;;;;;;;;5037636;28;20212;-64
2023/11/03 02:58:29;;;;;;;0.40;0.40;;;;;;;;;;5036713;28;20277;-63
2023/11/03 03:00:57;;;;;;;0.63;0.63;;;;;;;;;;5024705;28;20258;-65
2023/11/03 03:03:25;;;;;;;2.20;0.70;;;;;;;;;;5026081;28;20302;-65
2023/11/03 03:05:53;;;;;;;1.23;0.70;;;;;;;;;;5028808;28;20204;-65
2023/11/03 03:08:21;;;;;;;0.77;0.67;;;;;;;;;;5026609;28;20208;-64
2023/11/03 03:10:49;;;;;;;1.90;1.00;;;;;;;;;;5037348;28;20583;-63
2023/11/03 03:13:17;;;;;;;0.67;0.67;;;;;;;;;;5036067;28;20820;-64
2023/11/03 03:15:47;;;;;;;0.63;0.63;;;;;;;;;;5018003;28;20234;-65
2023/11/03 03:18:15;;;;;;;1.60;0.90;;;;;;;;;;5019124;28;20200;-63
2023/11/03 03:20:43;;;;;;;1.07;0.70;;;;;;;;;;5032813;28;20636;-63
2023/11/03 03:23:12;;;;;;;2.90;0.70;;;;;;;;;;5034990;28;20211;-64
2023/11/03 03:25:40;;;;;;;0.70;0.70;;;;;;;;;;5037266;28;20204;-64
2023/11/03 03:28:08;;;;;;;0.93;0.70;;;;;;;;;;5029404;28;20203;-63
2023/11/03 03:30:37;;;;;;;0.63;0.63;;;;;;;;;;5017859;28;20208;-64
2023/11/03 03:33:07;;;;;;;0.93;0.53;;;;;;;;;;5017976;28;20207;-63
2023/11/03 03:35:35;;;;;;;0.50;0.50;;;;;;;;;;5022586;28;20306;-63
2023/11/03 03:38:03;;;;;;;1.07;0.70;;;;;;;;;;5031491;28;20249;-63
2023/11/03 03:40:32;;;;;;;0.53;0.50;;;;;;;;;;5032214;28;20204;-64
2023/11/03 03:43:00;;;;;;;2.00;0.83;;;;;;;;;;5018622;28;20211;-63
2023/11/03 03:45:29;;;;;;;0.50;0.50;;;;;;;;;;5036701;28;20250;-63
2023/11/03 03:47:57;;;;;;;0.50;0.50;;;;;;;;;;5032343;28;20656;-65
2023/11/03 03:50:26;;;;;;;0.60;0.60;;;;;;;;;;5021312;28;20239;-64
2023/11/03 03:52:54;;;;;;;1.10;0.57;;;;;;;;;;5026695;28;20203;-65
2023/11/03 03:55:22;;;;;;;0.50;0.50;;;;;;;;;;5040554;28;20240;-64
2023/11/03 03:57:51;;;;;;;1.20;0.50;;;;;;;;;;5040320;28;20242;-64
2023/11/03 04:00:19;;;;;;;0.50;0.50;;;;;;;;;;5030495;28;20208;-63
2023/11/03 04:02:47;;;;;;;1.50;0.60;;;;;;;;;;5026012;28;20274;-65
2023/11/03 04:05:15;;;;;;;0.73;0.63;;;;;;;;;;5040898;28;20251;-65
2023/11/03 04:07:45;;;;;;;1.50;0.50;;;;;;;;;;5037862;28;20200;-63
2023/11/03 04:10:13;;;;;;;0.50;0.50;;;;;;;;;;5021567;28;20576;-63
2023/11/03 04:12:41;;;;;;;1.30;0.50;;;;;;;;;;5021409;28;20211;-63
2023/11/03 04:15:09;;;;;;;0.50;0.50;;;;;;;;;;5021523;28;20239;-63
2023/11/03 04:17:37;;;;;;;0.53;0.50;;;;;;;;;;5021331;28;20216;-64
2023/11/03 04:20:06;;;;;;;0.60;0.60;;;;;;;;;;5032272;28;20210;-63
2023/11/03 04:22:34;;;;;;;0.83;0.80;;;;;;;;;;5040897;28;20215;-63
2023/11/03 04:25:04;;;;;;;0.60;0.60;;;;;;;;;;5036514;28;20220;-63
2023/11/03 04:27:32;;;;;;;0.93;0.70;;;;;;;;;;5038883;28;20199;-63
2023/11/03 04:30:00;;;;;;;0.57;0.57;;;;;;;;;;5040938;28;20230;-63
2023/11/03 04:32:28;;;;;;;0.73;0.73;;;;;;;;;;5039674;28;20273;-64
2023/11/03 04:34:56;;;;;;;0.80;0.80;;;;;;;;;;5040698;28;20568;-64
2023/11/03 04:37:25;;;;;;;1.03;0.77;;;;;;;;;;5040097;28;20266;-64
2023/11/03 04:39:53;;;;;;;0.80;0.80;;;;;;;;;;5034584;28;20218;-64
2023/11/03 04:42:22;;;;;;;0.70;0.70;;;;;;;;;;5039362;28;20208;-64
2023/11/03 04:44:50;;;;;;;0.80;0.80;;;;;;;;;;5040675;28;20219;-63
2023/11/03 04:47:18;;;;;;;0.73;0.60;;;;;;;;;;5040197;28;20208;-65
2023/11/03 04:49:47;;;;;;;1.53;0.70;;;;;;;;;;5021403;28;20666;-66
2023/11/03 04:52:15;;;;;;;0.70;0.70;;;;;;;;;;5020848;28;20212;-63
2023/11/03 04:54:43;;;;;;;0.87;0.53;;;;;;;;;;5020704;28;20247;-63
2023/11/03 04:57:11;;;;;;;0.93;0.70;;;;;;;;;;5031611;28;20207;-64
2023/11/03 04:59:41;;;;;;;0.53;0.50;;;;;;;;;;5031999;28;20247;-64
2023/11/03 05:02:10;;;;;;;1.30;0.50;;;;;;;;;;5039283;28;20647;-63
2023/11/03 05:04:38;;;;;;;0.47;0.47;;;;;;;;;;5039090;28;20215;-63
2023/11/03 05:07:06;;;;;;;1.80;0.40;;;;;;;;;;5039609;28;20208;-64
2023/11/03 05:09:34;;;;;;;1.90;0.43;;;;;;;;;;5026841;28;20195;-63
2023/11/03 05:12:03;;;;;;;0.60;0.60;;;;;;;;;;5031800;28;20270;-64
2023/11/03 05:14:31;;;;;;;1.73;1.27;;;;;;;;;;5037867;28;20219;-64
2023/11/03 05:17:01;;;;;;;2.13;0.70;;;;;;;;;;5040123;28;20215;-64
2023/11/03 05:19:29;;;;;;;0.70;0.70;;;;;;;;;;5036301;28;20218;-63
2023/11/03 05:21:57;;;;;;;0.30;0.30;;;;;;;;;;5020307;28;20204;-63
2023/11/03 05:24:25;;;;;;;0.33;0.33;;;;;;;;;;5037106;28;20713;-63
2023/11/03 05:26:53;;;;;;;0.60;0.60;;;;;;;;;;5037501;28;20207;-63
2023/11/03 05:29:22;;;;;;;1.60;0.87;;;;;;;;;;5036087;28;20206;-63
2023/11/03 05:31:55;;;;;;;1.60;0.70;;;;;;;;;;5031330;28;20204;-63
2023/11/03 05:34:24;;;;;;;0.60;0.60;;;;;;;;;;5034235;28;20224;-63
2023/11/03 05:36:52;;;;;;;0.70;0.70;;;;;;;;;;5029658;28;20262;-63
2023/11/03 05:39:21;;;;;;;0.47;0.47;;;;;;;;;;5019680;28;20671;-63
2023/11/03 05:41:49;;;;;;;0.50;0.50;;;;;;;;;;5033445;28;20268;-63
2023/11/03 05:44:17;;;;;;;0.50;0.50;;;;;;;;;;5039472;28;20231;-64
2023/11/03 05:46:45;;;;;;;0.50;0.50;;;;;;;;;;5039482;28;20204;-63
2023/11/03 05:49:13;;;;;;;0.67;0.67;;;;;;;;;;5039598;28;20261;-63
2023/11/03 05:51:43;;;;;;;0.57;0.57;;;;;;;;;;5039261;28;20208;-64
2023/11/03 05:54:11;;;;;;;0.53;0.53;;;;;;;;;;5033400;28;20234;-64
2023/11/03 05:56:39;;;;;;;0.40;0.40;;;;;;;;;;5020387;28;20243;-64
2023/11/03 05:59:07;;;;;;;1.53;0.83;;;;;;;;;;5019217;28;20722;-64
2023/11/03 06:01:35;;;;;;;0.57;0.57;;;;;;;;;;5019671;28;20212;-63
2023/11/03 06:04:04;;;;;;;2.73;1.40;;;;;;;;;;5022469;28;20282;-64
2023/11/03 06:06:32;;;;;;;0.80;0.80;;;;;;;;;;5022078;28;20290;-64
2023/11/03 06:09:01;;;;;;;0.70;0.67;;;;;;;;;;5019534;28;20588;-63
2023/11/03 06:11:29;;;;;;;0.97;0.70;;;;;;;;;;5025440;28;20211;-63
2023/11/03 06:13:57;;;;;;;2.63;0.63;;;;;;;;;;5038896;28;20227;-63
2023/11/03 06:16:25;;;;;;;0.60;0.60;;;;;;;;;;5039022;28;20239;-63
2023/11/03 06:18:53;;;;;;;0.70;0.70;;;;;;;;;;5038958;28;20230;-63
2023/11/03 06:21:22;;;;;;;2.90;0.83;;;;;;;;;;5031258;28;20615;-63
2023/11/03 06:23:50;;;;;;;2.90;0.90;;;;;;;;;;5028759;28;20235;-63
2023/11/03 06:26:19;;;;;;;4.07;0.87;;;;;;;;;;5018959;28;20611;-64
2023/11/03 06:28:47;;;;;;;1.43;0.80;;;;;;;;;;5019048;28;20212;-63
2023/11/03 06:31:15;;;;;;;0.93;0.83;;;;;;;;;;5020242;28;20208;-63
2023/11/03 06:33:47;;;;;;;0.80;0.70;;;;;;;;;;5018782;28;20250;-64
2023/11/03 06:36:17;;;;;;;1.43;1.10;;;;;;;;;;5019718;28;20259;-63
2023/11/03 06:38:45;;;;;;;1.13;0.90;;;;;;;;;;5038044;28;20207;-64
2023/11/03 06:41:13;;;;;;;0.80;0.80;;;;;;;;;;5033419;28;20200;-64
2023/11/03 06:43:43;;;;;;;1.23;0.73;;;;;;;;;;5031998;28;20230;-63
2023/11/03 06:46:15;;;;;;;1.43;0.70;;;;;;;;;;5028282;28;20215;-63
2023/11/03 06:48:44;;;;;;;0.93;0.70;;;;;;;;;;5029937;28;20203;-63
2023/11/03 06:51:12;;;;;;;2.23;0.90;;;;;;;;;;5037091;28;20214;-63
2023/11/03 06:53:40;;;;;;;2.63;0.90;;;;;;;;;;5030547;28;20235;-64
2023/11/03 06:56:08;;;;;;;5.17;1.50;;;;;;;;;;5020353;28;20286;-63
2023/11/03 06:58:36;;;;;;;1.63;0.80;;;;;;;;;;5023444;28;20232;-63
2023/11/03 07:01:06;;;;;;;1.33;0.83;;;;;;;;;;5012164;28;20223;-62
2023/11/03 07:03:35;;;;;;;1.60;1.40;;;;;;;;;;5004331;28;20256;-63
2023/11/03 07:06:04;;;;;;;0.80;0.80;;;;;;;;;;4998660;28;20205;-62
2023/11/03 07:08:32;;;;;;;1.87;1.10;;;;;;;;;;5005160;28;20213;-63
2023/11/03 07:11:01;;;;;;;0.60;0.60;;;;;;;;;;5008593;28;20565;-62
2023/11/03 07:13:29;;;;;;;1.37;0.73;;;;;;;;;;5007457;28;20227;-65
2023/11/03 07:15:58;;;;;;;0.60;0.60;;;;;;;;;;5009571;28;20263;-63
2023/11/03 07:18:28;;;;;;;2.37;0.90;;;;;;;;;;5007151;28;20235;-63
2023/11/03 07:20:56;;;;;;;1.07;0.90;;;;;;;;;;5008287;28;20687;-63
2023/11/03 07:23:24;;;;;;;2.97;1.20;;;;;;;;;;5006139;28;20220;-63
2023/11/03 07:25:52;;;;;;;1.00;0.90;;;;;;;;;;5006010;28;20201;-63
2023/11/03 07:28:20;;;;;;;3.57;0.83;;;;;;;;;;5007205;28;20204;-62
2023/11/03 07:30:50;;;;;;;0.70;0.70;;;;;;;;;;5008406;28;20262;-63
2023/11/03 07:33:19;;;;;;;1.47;1.37;;;;;;;;;;5005845;28;20226;-62
2023/11/03 07:36:10;;;;;;;1.30;0.90;;;;;;;;;;5010993;28;20220;-62
2023/11/03 07:38:40;;;;;;;1.20;1.10;;;;;;;;;;4991152;28;20216;-62
2023/11/03 07:41:08;;;;;;;1.13;1.03;;;;;;;;;;5008068;28;20235;-62
2023/11/03 07:43:37;;;;;;;1.40;1.00;;;;;;;;;;5000613;28;20319;-62
2023/11/03 07:46:06;;;;;;;0.97;0.80;;;;;;;;;;4998266;28;20702;-62
2023/11/03 07:48:34;;;;;;;1.37;1.10;;;;;;;;;;5006239;28;20207;-62
2023/11/03 07:51:03;;;;;;;3.90;1.27;;;;;;;;;;4998279;28;20216;-62
2023/11/03 07:53:31;;;;;;;4.43;0.90;;;;;;;;;;5005730;28;20281;-62
2023/11/03 07:56:00;;;;;;;3.10;1.30;;;;;;;;;;5001505;28;20220;-62
2023/11/03 07:58:29;;;;;;;6.70;1.13;;;;;;;;;;5001849;28;20715;-62
2023/11/03 08:00:57;;;;;;;3.10;1.30;;;;;;;;;;4999690;28;20229;-62
2023/11/03 08:03:27;;;;;;;1.70;1.10;;;;;;;;;;5003102;28;20221;-62
2023/11/03 08:05:56;;;;;;;5.37;1.40;;;;;;;;;;5016976;28;20204;-63
2023/11/03 08:08:25;;;;;;;4.33;1.40;;;;;;;;;;5006708;28;20580;-62
2023/11/03 08:10:53;;;;;;;2.23;1.20;;;;;;;;;;5008540;28;20235;-62
2023/11/03 08:13:23;;;;;;;7.33;1.33;;;;;;;;;;5007442;28;20224;-62
2023/11/03 08:15:52;;;;;;;3.37;0.90;;;;;;;;;;5006206;28;20209;-63
2023/11/03 08:18:20;;;;;;;3.77;1.10;;;;;;;;;;5008786;28;20204;-64
2023/11/03 08:20:49;;;;;;;1.33;1.00;;;;;;;;;;5014241;28;20209;-62
2023/11/03 08:23:17;;;;;;;2.37;1.20;;;;;;;;;;5002399;28;20205;-62
2023/11/03 08:25:49;;;;;;;2.97;0.90;;;;;;;;;;4997980;28;20291;-63
2023/11/03 08:28:17;;;;;;;1.13;1.03;;;;;;;;;;4997661;28;20292;-63
2023/11/03 08:30:47;;;;;;;0.83;0.80;;;;;;;;;;4998074;28;20209;-63
2023/11/03 08:33:16;;;;;;;1.83;1.10;;;;;;;;;;4997551;28;20288;-63
2023/11/03 08:35:45;;;;;;;3.57;1.30;;;;;;;;;;4999725;28;20216;-63
2023/11/03 08:38:14;;;;;;;3.50;0.93;;;;;;;;;;5001538;28;20229;-64
2023/11/03 08:40:42;;;;;;;1.07;0.80;;;;;;;;;;5019131;28;20222;-63
2023/11/03 08:43:11;;;;;;;3.63;1.20;;;;;;;;;;5007480;28;20267;-63
2023/11/03 08:45:40;;;;;;;4.03;1.00;;;;;;;;;;5001441;28;20211;-63
2023/11/03 08:48:10;;;;;;;1.40;1.00;;;;;;;;;;5001045;28;20295;-63
2023/11/03 08:50:38;;;;;;;1.07;0.87;;;;;;;;;;5001271;28;20297;-63
2023/11/03 08:53:07;;;;;;;1.30;0.90;;;;;;;;;;5009116;28;20207;-63
2023/11/03 08:55:35;;;;;;;1.00;1.00;;;;;;;;;;5001690;28;20213;-63
2023/11/03 08:58:03;;;;;;;1.97;1.53;;;;;;;;;;5016744;28;20232;-65
2023/11/03 09:00:45;;;;;;;1.40;0.90;;;;;;;;;;5019985;28;20235;-63
2023/11/03 09:03:14;;;;;;;1.83;0.77;;;;;;;;;;5015459;28;20200;-64
2023/11/03 09:05:43;;;;;;;1.40;1.13;;;;;;;;;;5019839;28;20208;-65
2023/11/03 09:08:12;;;;;;;2.70;1.20;;;;;;;;;;5015564;28;20248;-64
2023/11/03 09:10:40;;;;;;;2.53;0.90;;;;;;;;;;5001730;28;20209;-65
2023/11/03 09:13:08;;;;;;;0.97;0.97;;;;;;;;;;5005404;28;20270;-63
2023/11/03 09:15:36;;;;;;;1.77;0.80;;;;;;;;;;5020266;28;20715;-66
2023/11/03 09:18:19;;;;;;;2.00;0.97;;;;;;;;;;5020111;28;20590;-65
2023/11/03 09:20:47;;;;;;;3.63;1.10;;;;;;;;;;5017055;28;20216;-65
2023/11/03 09:23:15;;;;;;;0.93;0.63;;;;;;;;;;5000355;28;20617;-66
2023/11/03 09:25:44;;;;;;;1.60;0.93;;;;;;;;;;5000351;28;20227;-65
2023/11/03 09:28:13;;;;;;;1.00;0.90;;;;;;;;;;5000183;28;20209;-65
2023/11/03 09:30:42;;;;;;;3.07;1.57;;;;;;;;;;5005401;28;20259;-65
2023/11/03 09:33:10;;;;;;;2.60;1.10;;;;;;;;;;5000591;28;20291;-66
2023/11/03 09:35:40;;;;;;;5.13;1.47;;;;;;;;;;5000194;28;20697;-64
2023/11/03 09:38:08;;;;;;;2.30;1.13;;;;;;;;;;5000469;28;20264;-67
2023/11/03 09:40:36;;;;;;;2.57;1.70;;;;;;;;;;5001470;28;20237;-66
2023/11/03 09:43:05;;;;;;;1.10;1.00;;;;;;;;;;5000003;28;20267;-66
2023/11/03 09:45:33;;;;;;;3.50;1.10;;;;;;;;;;5000133;28;20217;-66
2023/11/03 09:48:03;;;;;;;2.10;0.80;;;;;;;;;;5012065;28;20234;-66
2023/11/03 09:50:31;;;;;;;2.23;1.00;;;;;;;;;;5000221;28;20295;-68
2023/11/03 09:53:05;;;;;;;2.53;1.00;;;;;;;;;;4999964;28;20215;-66
2023/11/03 09:55:37;;;;;;;2.07;0.77;;;;;;;;;;5000312;28;20215;-66
2023/11/03 09:58:07;;;;;;;1.30;0.70;;;;;;;;;;5004617;28;20247;-65
2023/11/03 10:00:37;;;;;;;1.93;0.90;;;;;;;;;;5019710;28;20211;-66
2023/11/03 10:03:05;;;;;;;1.53;0.60;;;;;;;;;;5024698;28;20204;-66
2023/11/03 10:05:36;;;;;;;3.73;0.80;;;;;;;;;;5024738;28;20212;-64
2023/11/03 10:08:07;;;;;;;2.23;1.07;;;;;;;;;;5019519;28;20209;-64
2023/11/03 10:10:35;;;;;;;1.43;0.60;;;;;;;;;;5019484;28;20224;-67
2023/11/03 10:13:05;;;;;;;1.07;0.90;;;;;;;;;;5019164;28;20254;-66
2023/11/03 10:15:41;;;;;;;0.90;0.90;;;;;;;;;;5019112;28;20219;-63
2023/11/03 10:18:10;;;;;;;1.00;0.77;;;;;;;;;;5019377;28;20231;-64
2023/11/03 10:20:39;;;;;;;0.73;0.73;;;;;;;;;;5033625;28;20199;-64
2023/11/03 10:23:09;;;;;;;0.70;0.70;;;;;;;;;;5039139;28;20212;-66
2023/11/03 10:25:37;;;;;;;1.27;0.50;;;;;;;;;;5039011;28;20220;-66
2023/11/03 10:28:05;;;;;;;1.13;0.60;;;;;;;;;;5038542;28;20206;-65
2023/11/03 10:30:36;;;;;;;0.53;0.50;;;;;;;;;;5038734;28;20334;-68
2023/11/03 10:33:04;;;;;;;1.70;0.60;;;;;;;;;;5038883;28;20211;-65
2023/11/03 10:35:33;;;;;;;0.93;0.70;;;;;;;;;;5038429;28;20211;-65
2023/11/03 10:38:02;;;;;;;3.70;0.70;;;;;;;;;;5038572;28;20254;-65
2023/11/03 10:40:32;;;;;;;3.57;0.77;;;;;;;;;;5034033;28;20204;-66
2023/11/03 10:43:02;;;;;;;3.63;0.70;;;;;;;;;;5018410;28;20204;-67
2023/11/03 10:45:32;;;;;;;0.50;0.50;;;;;;;;;;5018625;28;20212;-66
2023/11/03 10:48:04;;;;;;;0.50;0.50;;;;;;;;;;5018553;28;20208;-65
2023/11/03 10:50:35;;;;;;;1.63;0.67;;;;;;;;;;5018560;28;20290;-65
2023/11/03 10:53:10;;;;;;;1.70;1.00;;;;;;;;;;5018467;28;20216;-65
2023/11/03 10:55:47;;;;;;;1.10;0.70;;;;;;;;;;5027781;28;20256;-66
2023/11/03 10:58:15;;;;;;;0.50;0.50;;;;;;;;;;5031627;28;20240;-65
2023/11/03 11:00:49;;;;;;;2.30;0.67;;;;;;;;;;5018704;28;20294;-67
2023/11/03 11:03:21;;;;;;;1.10;0.87;;;;;;;;;;5013134;28;20204;-66
2023/11/03 11:05:57;;;;;;;0.63;0.60;;;;;;;;;;4998803;28;20209;-65
2023/11/03 11:08:27;;;;;;;1.70;0.60;;;;;;;;;;5006516;28;20204;-66
2023/11/03 11:10:58;;;;;;;2.27;0.70;;;;;;;;;;5016053;28;20204;-65
2023/11/03 11:13:26;;;;;;;1.07;0.40;;;;;;;;;;5017130;28;20224;-66
2023/11/03 11:16:04;;;;;;;0.87;0.60;;;;;;;;;;5017111;28;20215;-65
2023/11/03 11:18:34;;;;;;;7.00;0.83;;;;;;;;;;5003021;28;20579;-65
2023/11/03 11:21:03;;;;;;;2.13;0.60;;;;;;;;;;5012450;28;20259;-66
2023/11/03 11:23:33;;;;;;;4.23;1.00;;;;;;;;;;5008454;28;20226;-66
2023/11/03 11:26:03;;;;;;;2.03;0.70;;;;;;;;;;5007185;28;20247;-66
2023/11/03 11:28:32;;;;;;;0.97;0.80;;;;;;;;;;5008400;28;20201;-66
2023/11/03 11:31:01;;;;;;;1.70;1.00;;;;;;;;;;5006140;28;20608;-64
2023/11/03 11:33:30;;;;;;;0.60;0.60;;;;;;;;;;5006400;28;20630;-65
2023/11/03 11:36:19;;;;;;;1.47;0.70;;;;;;;;;;5008449;28;20204;-66
2023/11/03 11:38:50;;;;;;;1.50;0.73;;;;;;;;;;5008720;28;20231;-67
2023/11/03 11:41:20;;;;;;;0.83;0.80;;;;;;;;;;5008736;28;20207;-66
2023/11/03 11:43:50;;;;;;;0.60;0.60;;;;;;;;;;5009055;28;20236;-66
2023/11/03 11:46:21;;;;;;;0.67;0.67;;;;;;;;;;5004988;28;20208;-66
2023/11/03 11:48:50;;;;;;;0.70;0.50;;;;;;;;;;5017597;28;20222;-65
2023/11/03 11:51:18;;;;;;;0.60;0.60;;;;;;;;;;5017340;28;20573;-65
2023/11/03 11:53:46;;;;;;;1.73;0.70;;;;;;;;;;5015320;28;20268;-64
2023/11/03 11:56:20;;;;;;;0.83;0.70;;;;;;;;;;5017632;28;20222;-67
2023/11/03 11:58:49;;;;;;;0.60;0.50;;;;;;;;;;5017085;28;20239;-64
2023/11/03 12:01:18;;;;;;;0.50;0.50;;;;;;;;;;5017550;28;20299;-64
2023/11/03 12:03:46;;;;;;;1.50;0.73;;;;;;;;;;5012930;28;20750;-66
2023/11/03 12:06:14;;;;;;;0.73;0.50;;;;;;;;;;5007131;28;20291;-66
2023/11/03 12:08:42;;;;;;;1.63;0.67;;;;;;;;;;4999497;28;20205;-65
2023/11/03 12:11:10;;;;;;;1.20;0.83;;;;;;;;;;5020562;28;20208;-66
2023/11/03 12:13:42;;;;;;;1.57;0.73;;;;;;;;;;5020980;28;20232;-67
2023/11/03 12:16:11;;;;;;;0.43;0.43;;;;;;;;;;5021311;28;20243;-67
2023/11/03 12:18:40;;;;;;;0.60;0.60;;;;;;;;;;5021146;28;20228;-67
2023/11/03 12:21:08;;;;;;;2.53;0.70;;;;;;;;;;5019775;28;20250;-67
2023/11/03 12:23:39;;;;;;;0.73;0.60;;;;;;;;;;5020956;28;20718;-66
2023/11/03 12:26:08;;;;;;;0.70;0.70;;;;;;;;;;5020999;28;20212;-65
2023/11/03 12:28:38;;;;;;;0.53;0.53;;;;;;;;;;5013051;28;20200;-65
2023/11/03 12:31:09;;;;;;;1.40;0.87;;;;;;;;;;5008741;28;20209;-67
2023/11/03 12:33:37;;;;;;;0.53;0.53;;;;;;;;;;5013426;28;20220;-65
2023/11/03 12:36:06;;;;;;;0.60;0.60;;;;;;;;;;5003286;28;20613;-67
2023/11/03 12:38:41;;;;;;;0.70;0.70;;;;;;;;;;5018007;28;20224;-64
2023/11/03 12:41:14;;;;;;;1.50;0.77;;;;;;;;;;5010846;28;20353;-63
2023/11/03 12:43:44;;;;;;;1.03;0.80;;;;;;;;;;5010695;28;20255;-68
2023/11/03 12:46:13;;;;;;;2.10;0.77;;;;;;;;;;5020861;28;20211;-69
2023/11/03 12:48:41;;;;;;;1.67;1.27;;;;;;;;;;5020535;28;20219;-68
2023/11/03 12:51:11;;;;;;;2.60;0.90;;;;;;;;;;5012453;28;20682;-69
2023/11/03 12:53:49;;;;;;;2.40;0.80;;;;;;;;;;5002730;28;20239;-67
2023/11/03 12:56:18;;;;;;;2.37;0.60;;;;;;;;;;5004913;28;20205;-69
2023/11/03 12:58:47;;;;;;;1.77;0.97;;;;;;;;;;5010545;28;20244;-69
2023/11/03 13:01:17;;;;;;;0.87;0.67;;;;;;;;;;5034942;28;20619;-69
2023/11/03 13:03:45;;;;;;;2.07;0.90;;;;;;;;;;5027197;28;20235;-69
2023/11/03 13:06:13;;;;;;;1.00;0.90;;;;;;;;;;5020122;28;20667;-70
2023/11/03 13:08:42;;;;;;;2.30;0.80;;;;;;;;;;5023395;28;20208;-66
2023/11/03 13:11:10;;;;;;;2.80;0.87;;;;;;;;;;5027050;28;20211;-66
2023/11/03 13:13:38;;;;;;;4.10;1.23;;;;;;;;;;5028064;28;20239;-66
2023/11/03 13:16:07;;;;;;;1.33;0.87;;;;;;;;;;5020577;28;20214;-66
2023/11/03 13:18:37;;;;;;;2.37;0.83;;;;;;;;;;5020060;28;20270;-66
2023/11/03 13:21:05;;;;;;;1.37;0.93;;;;;;;;;;5038581;28;20254;-66
2023/11/03 13:23:33;;;;;;;1.37;1.27;;;;;;;;;;5040070;28;20281;-65
2023/11/03 13:26:02;;;;;;;2.53;0.90;;;;;;;;;;5040253;28;20214;-65
2023/11/03 13:28:30;;;;;;;1.17;0.93;;;;;;;;;;5034425;28;20219;-64
2023/11/03 13:30:58;;;;;;;1.83;0.80;;;;;;;;;;5020139;28;20200;-64
2023/11/03 13:33:26;;;;;;;1.40;0.80;;;;;;;;;;5026995;28;20656;-65
2023/11/03 13:35:56;;;;;;;2.47;1.30;;;;;;;;;;5032197;28;20203;-64
2023/11/03 13:38:24;;;;;;;1.20;1.10;;;;;;;;;;5030248;28;20200;-65
2023/11/03 13:40:53;;;;;;;3.03;1.33;;;;;;;;;;5029787;28;20705;-64
2023/11/03 13:43:22;;;;;;;1.63;1.20;;;;;;;;;;5028880;28;20274;-65
2023/11/03 13:45:52;;;;;;;1.33;1.20;;;;;;;;;;5030665;28;20214;-65
2023/11/03 13:48:20;;;;;;;3.57;1.53;;;;;;;;;;5030402;28;20197;-65
2023/11/03 13:50:48;;;;;;;3.10;1.17;;;;;;;;;;5030847;28;20196;-64
2023/11/03 13:53:17;;;;;;;3.07;1.20;;;;;;;;;;5031009;28;20199;-64
2023/11/03 13:55:46;;;;;;;3.23;1.90;;;;;;;;;;5029097;28;20283;-64
2023/11/03 13:58:14;;;;;;;2.43;1.10;;;;;;;;;;5023807;28;20279;-64
2023/11/03 14:00:43;;;;;;;2.70;1.33;;;;;;;;;;5007913;28;20223;-64
2023/11/03 14:03:12;;;;;;;2.97;1.20;;;;;;;;;;5006249;28;20287;-64
2023/11/03 14:05:41;;;;;;;4.20;1.47;;;;;;;;;;5008846;28;20656;-65
2023/11/03 14:08:10;;;;;;;1.43;0.87;;;;;;;;;;5011162;28;20205;-65
2023/11/03 14:10:39;;;;;;;1.43;1.20;;;;;;;;;;5010415;28;20247;-65
2023/11/03 14:13:08;;;;;;;2.67;1.50;;;;;;;;;;5012979;28;20223;-65
2023/11/03 14:15:36;;;;;;;3.47;1.43;;;;;;;;;;5008293;28;20206;-65
2023/11/03 14:18:04;;;;;;;2.93;1.30;;;;;;;;;;5008297;28;20608;-64
2023/11/03 14:20:33;;;;;;;1.40;1.20;;;;;;;;;;5009809;28;20229;-65
2023/11/03 14:23:02;;;;;;;1.47;1.07;;;;;;;;;;5008630;28;20200;-64
2023/11/03 14:25:30;;;;;;;4.40;1.27;;;;;;;;;;5010303;28;20200;-66
2023/11/03 14:27:59;;;;;;;2.90;0.90;;;;;;;;;;5018832;28;20291;-65
2023/11/03 14:30:28;;;;;;;3.00;1.20;;;;;;;;;;5015072;28;20205;-65
2023/11/03 14:32:56;;;;;;;1.30;1.20;;;;;;;;;;4998728;28;20215;-66
2023/11/03 14:35:24;;;;;;;2.03;1.20;;;;;;;;;;4999213;28;20696;-65
2023/11/03 14:37:55;;;;;;;1.30;0.80;;;;;;;;;;5003181;28;20204;-64
2023/11/03 14:40:23;;;;;;;3.70;1.20;;;;;;;;;;5015149;28;20243;-65
2023/11/03 14:42:51;;;;;;;3.03;1.10;;;;;;;;;;5010287;28;20731;-65
2023/11/03 14:45:20;;;;;;;3.17;1.57;;;;;;;;;;5018791;28;20282;-64
2023/11/03 14:47:49;;;;;;;5.63;1.63;;;;;;;;;;5017713;28;20200;-64
2023/11/03 14:50:17;;;;;;;1.90;1.10;;;;;;;;;;5015670;28;20201;-64
2023/11/03 14:52:46;;;;;;;2.93;1.37;;;;;;;;;;5017630;28;20207;-64
2023/11/03 14:55:17;;;;;;;1.60;1.10;;;;;;;;;;5000134;28;20239;-64